sensor_id;sensor_type;location;lat;lon;timestamp;P1;durP1;ratioP1;P2;durP2;ratioP2
51578;SDS011;47998;53.242;6.386;2023-06-26T00:01:23;10.73;;;8.52;;
51578;SDS011;47998;53.242;6.386;2023-06-26T00:03:48;12.30;;;9.15;;
51578;SDS011;47998;53.242;6.386;2023-06-26T00:06:14;10.05;;;9.05;;
51578;SDS011;47998;53.242;6.386;2023-06-26T00:08:40;13.48;;;9.93;;
51578;SDS011;47998;53.242;6.386;2023-06-26T00:11:06;10.80;;;9.45;;
51578;SDS011;47998;53.242;6.386;2023-06-26T00:13:31;11.85;;;9.43;;
51578;SDS011;47998;53.242;6.386;2023-06-26T00:15:57;10.68;;;8.77;;
51578;SDS011;47998;53.242;6.386;2023-06-26T00:18:25;11.77;;;9.65;;
51578;SDS011;47998;53.242;6.386;2023-06-26T00:20:51;11.63;;;9.50;;
51578;SDS011;47998;53.242;6.386;2023-06-26T00:23:16;13.32;;;9.35;;
51578;SDS011;47998;53.242;6.386;2023-06-26T00:25:44;11.45;;;8.32;;
51578;SDS011;47998;53.242;6.386;2023-06-26T00:28:10;13.50;;;8.85;;
51578;SDS011;47998;53.242;6.386;2023-06-26T00:30:36;10.57;;;9.23;;
51578;SDS011;47998;53.242;6.386;2023-06-26T00:33:01;10.35;;;8.38;;
51578;SDS011;47998;53.242;6.386;2023-06-26T00:35:27;10.95;;;8.95;;
51578;SDS011;47998;53.242;6.386;2023-06-26T00:37:53;11.18;;;9.20;;
51578;SDS011;47998;53.242;6.386;2023-06-26T00:40:19;9.75;;;8.75;;
51578;SDS011;47998;53.242;6.386;2023-06-26T00:42:44;9.57;;;8.57;;
51578;SDS011;47998;53.242;6.386;2023-06-26T00:45:11;9.75;;;8.63;;
51578;SDS011;47998;53.242;6.386;2023-06-26T00:47:39;13.15;;;9.63;;
51578;SDS011;47998;53.242;6.386;2023-06-26T00:50:09;11.10;;;9.02;;
51578;SDS011;47998;53.242;6.386;2023-06-26T00:52:36;10.95;;;9.02;;
51578;SDS011;47998;53.242;6.386;2023-06-26T00:55:04;12.00;;;9.43;;
51578;SDS011;47998;53.242;6.386;2023-06-26T00:57:31;11.50;;;9.43;;
51578;SDS011;47998;53.242;6.386;2023-06-26T00:59:57;11.80;;;9.10;;
51578;SDS011;47998;53.242;6.386;2023-06-26T01:02:26;10.00;;;8.95;;
51578;SDS011;47998;53.242;6.386;2023-06-26T01:04:58;10.15;;;8.35;;
51578;SDS011;47998;53.242;6.386;2023-06-26T01:07:32;10.85;;;9.52;;
51578;SDS011;47998;53.242;6.386;2023-06-26T01:10:06;11.82;;;9.35;;
51578;SDS011;47998;53.242;6.386;2023-06-26T01:12:33;11.52;;;8.75;;
51578;SDS011;47998;53.242;6.386;2023-06-26T01:15:00;9.98;;;8.90;;
51578;SDS011;47998;53.242;6.386;2023-06-26T01:17:27;10.23;;;8.90;;
51578;SDS011;47998;53.242;6.386;2023-06-26T01:19:59;9.73;;;8.68;;
51578;SDS011;47998;53.242;6.386;2023-06-26T01:27:48;10.27;;;8.93;;
51578;SDS011;47998;53.242;6.386;2023-06-26T01:30:17;11.15;;;9.27;;
51578;SDS011;47998;53.242;6.386;2023-06-26T01:32:45;11.75;;;9.57;;
51578;SDS011;47998;53.242;6.386;2023-06-26T01:35:11;10.45;;;9.45;;
51578;SDS011;47998;53.242;6.386;2023-06-26T01:37:38;12.27;;;10.07;;
51578;SDS011;47998;53.242;6.386;2023-06-26T01:40:04;13.93;;;9.85;;
51578;SDS011;47998;53.242;6.386;2023-06-26T01:42:34;12.48;;;9.10;;
51578;SDS011;47998;53.242;6.386;2023-06-26T01:45:02;11.38;;;9.43;;
51578;SDS011;47998;53.242;6.386;2023-06-26T01:47:35;10.38;;;8.95;;
51578;SDS011;47998;53.242;6.386;2023-06-26T01:50:06;10.18;;;8.98;;
51578;SDS011;47998;53.242;6.386;2023-06-26T01:55:20;10.10;;;8.43;;
51578;SDS011;47998;53.242;6.386;2023-06-26T01:57:54;10.50;;;9.15;;
51578;SDS011;47998;53.242;6.386;2023-06-26T02:00:21;11.68;;;9.55;;
51578;SDS011;47998;53.242;6.386;2023-06-26T02:02:49;15.80;;;9.75;;
51578;SDS011;47998;53.242;6.386;2023-06-26T02:05:15;12.60;;;9.23;;
51578;SDS011;47998;53.242;6.386;2023-06-26T02:07:41;10.88;;;9.50;;
51578;SDS011;47998;53.242;6.386;2023-06-26T02:10:07;12.07;;;9.90;;
51578;SDS011;47998;53.242;6.386;2023-06-26T02:12:34;11.38;;;10.02;;
51578;SDS011;47998;53.242;6.386;2023-06-26T02:15:01;10.25;;;9.07;;
51578;SDS011;47998;53.242;6.386;2023-06-26T02:17:27;12.73;;;9.68;;
51578;SDS011;47998;53.242;6.386;2023-06-26T02:19:53;13.02;;;9.93;;
51578;SDS011;47998;53.242;6.386;2023-06-26T02:22:18;12.73;;;9.88;;
51578;SDS011;47998;53.242;6.386;2023-06-26T02:24:44;10.52;;;9.43;;
51578;SDS011;47998;53.242;6.386;2023-06-26T02:27:10;11.63;;;10.35;;
51578;SDS011;47998;53.242;6.386;2023-06-26T02:29:36;12.18;;;9.60;;
51578;SDS011;47998;53.242;6.386;2023-06-26T02:32:02;13.30;;;9.98;;
51578;SDS011;47998;53.242;6.386;2023-06-26T02:34:28;12.65;;;10.32;;
51578;SDS011;47998;53.242;6.386;2023-06-26T02:36:55;17.73;;;12.60;;
51578;SDS011;47998;53.242;6.386;2023-06-26T02:39:21;14.73;;;10.63;;
51578;SDS011;47998;53.242;6.386;2023-06-26T02:41:47;15.63;;;10.65;;
51578;SDS011;47998;53.242;6.386;2023-06-26T02:44:13;16.25;;;11.57;;
51578;SDS011;47998;53.242;6.386;2023-06-26T02:46:39;15.32;;;11.68;;
51578;SDS011;47998;53.242;6.386;2023-06-26T02:49:05;13.50;;;12.10;;
51578;SDS011;47998;53.242;6.386;2023-06-26T02:51:32;14.45;;;12.23;;
51578;SDS011;47998;53.242;6.386;2023-06-26T02:53:58;14.10;;;12.20;;
51578;SDS011;47998;53.242;6.386;2023-06-26T02:56:24;14.20;;;12.65;;
51578;SDS011;47998;53.242;6.386;2023-06-26T02:58:54;15.43;;;12.25;;
51578;SDS011;47998;53.242;6.386;2023-06-26T03:01:20;12.75;;;11.45;;
51578;SDS011;47998;53.242;6.386;2023-06-26T03:03:46;13.75;;;12.35;;
51578;SDS011;47998;53.242;6.386;2023-06-26T03:06:12;13.73;;;12.25;;
51578;SDS011;47998;53.242;6.386;2023-06-26T03:08:38;14.65;;;13.07;;
51578;SDS011;47998;53.242;6.386;2023-06-26T03:11:08;15.50;;;12.65;;
51578;SDS011;47998;53.242;6.386;2023-06-26T03:13:34;14.98;;;12.90;;
51578;SDS011;47998;53.242;6.386;2023-06-26T03:16:01;14.10;;;12.70;;
51578;SDS011;47998;53.242;6.386;2023-06-26T03:18:27;13.32;;;11.93;;
51578;SDS011;47998;53.242;6.386;2023-06-26T03:20:53;14.98;;;13.35;;
51578;SDS011;47998;53.242;6.386;2023-06-26T03:23:20;15.05;;;12.23;;
51578;SDS011;47998;53.242;6.386;2023-06-26T03:25:46;13.20;;;11.85;;
51578;SDS011;47998;53.242;6.386;2023-06-26T03:28:12;13.90;;;12.43;;
51578;SDS011;47998;53.242;6.386;2023-06-26T03:30:38;13.85;;;11.85;;
51578;SDS011;47998;53.242;6.386;2023-06-26T03:33:04;15.57;;;12.15;;
51578;SDS011;47998;53.242;6.386;2023-06-26T03:35:30;13.27;;;11.88;;
51578;SDS011;47998;53.242;6.386;2023-06-26T03:37:55;14.20;;;12.15;;
51578;SDS011;47998;53.242;6.386;2023-06-26T03:40:22;14.35;;;12.07;;
51578;SDS011;47998;53.242;6.386;2023-06-26T03:42:47;19.20;;;12.23;;
51578;SDS011;47998;53.242;6.386;2023-06-26T03:45:13;13.63;;;11.48;;
51578;SDS011;47998;53.242;6.386;2023-06-26T03:47:39;12.98;;;11.65;;
51578;SDS011;47998;53.242;6.386;2023-06-26T03:50:05;13.02;;;11.63;;
51578;SDS011;47998;53.242;6.386;2023-06-26T03:52:31;13.48;;;11.65;;
51578;SDS011;47998;53.242;6.386;2023-06-26T03:54:57;13.60;;;11.73;;
51578;SDS011;47998;53.242;6.386;2023-06-26T03:57:23;14.90;;;12.18;;
51578;SDS011;47998;53.242;6.386;2023-06-26T03:59:49;12.95;;;11.68;;
51578;SDS011;47998;53.242;6.386;2023-06-26T04:02:15;16.35;;;11.02;;
51578;SDS011;47998;53.242;6.386;2023-06-26T04:04:41;13.73;;;10.85;;
51578;SDS011;47998;53.242;6.386;2023-06-26T04:07:06;12.38;;;11.10;;
51578;SDS011;47998;53.242;6.386;2023-06-26T04:09:32;12.77;;;10.68;;
51578;SDS011;47998;53.242;6.386;2023-06-26T04:11:58;12.98;;;10.98;;
51578;SDS011;47998;53.242;6.386;2023-06-26T04:14:23;12.32;;;10.02;;
51578;SDS011;47998;53.242;6.386;2023-06-26T04:16:49;13.20;;;9.95;;
51578;SDS011;47998;53.242;6.386;2023-06-26T04:19:15;11.43;;;9.63;;
51578;SDS011;47998;53.242;6.386;2023-06-26T04:21:41;13.70;;;7.93;;
51578;SDS011;47998;53.242;6.386;2023-06-26T04:24:07;13.85;;;9.30;;
51578;SDS011;47998;53.242;6.386;2023-06-26T04:26:32;12.18;;;9.32;;
51578;SDS011;47998;53.242;6.386;2023-06-26T04:28:58;10.48;;;8.70;;
51578;SDS011;47998;53.242;6.386;2023-06-26T04:31:24;13.82;;;8.65;;
51578;SDS011;47998;53.242;6.386;2023-06-26T04:33:50;12.70;;;9.40;;
51578;SDS011;47998;53.242;6.386;2023-06-26T04:36:18;12.82;;;7.45;;
51578;SDS011;47998;53.242;6.386;2023-06-26T04:38:43;15.77;;;9.52;;
51578;SDS011;47998;53.242;6.386;2023-06-26T04:41:09;18.80;;;9.82;;
51578;SDS011;47998;53.242;6.386;2023-06-26T04:43:35;14.20;;;9.45;;
51578;SDS011;47998;53.242;6.386;2023-06-26T04:46:02;13.15;;;9.15;;
51578;SDS011;47998;53.242;6.386;2023-06-26T04:48:28;17.17;;;10.25;;
51578;SDS011;47998;53.242;6.386;2023-06-26T04:50:56;16.73;;;10.38;;
51578;SDS011;47998;53.242;6.386;2023-06-26T04:53:22;17.65;;;9.65;;
51578;SDS011;47998;53.242;6.386;2023-06-26T04:55:49;17.90;;;11.07;;
51578;SDS011;47998;53.242;6.386;2023-06-26T04:58:15;18.40;;;10.98;;
51578;SDS011;47998;53.242;6.386;2023-06-26T05:00:41;21.23;;;11.57;;
51578;SDS011;47998;53.242;6.386;2023-06-26T05:03:08;16.20;;;10.93;;
51578;SDS011;47998;53.242;6.386;2023-06-26T05:05:35;24.48;;;12.52;;
51578;SDS011;47998;53.242;6.386;2023-06-26T05:08:06;20.90;;;11.43;;
51578;SDS011;47998;53.242;6.386;2023-06-26T05:10:42;19.40;;;10.88;;
51578;SDS011;47998;53.242;6.386;2023-06-26T05:13:09;25.48;;;11.20;;
51578;SDS011;47998;53.242;6.386;2023-06-26T05:15:35;14.40;;;8.98;;
51578;SDS011;47998;53.242;6.386;2023-06-26T05:18:01;19.27;;;9.80;;
51578;SDS011;47998;53.242;6.386;2023-06-26T05:20:27;17.40;;;9.40;;
51578;SDS011;47998;53.242;6.386;2023-06-26T05:22:52;20.17;;;10.18;;
51578;SDS011;47998;53.242;6.386;2023-06-26T05:25:19;19.08;;;8.57;;
51578;SDS011;47998;53.242;6.386;2023-06-26T05:27:46;20.58;;;9.77;;
51578;SDS011;47998;53.242;6.386;2023-06-26T05:30:13;15.57;;;7.72;;
51578;SDS011;47998;53.242;6.386;2023-06-26T05:32:39;13.07;;;5.90;;
51578;SDS011;47998;53.242;6.386;2023-06-26T05:35:06;16.30;;;5.93;;
51578;SDS011;47998;53.242;6.386;2023-06-26T05:37:32;12.20;;;5.60;;
51578;SDS011;47998;53.242;6.386;2023-06-26T05:39:59;14.55;;;7.03;;
51578;SDS011;47998;53.242;6.386;2023-06-26T05:42:28;18.83;;;7.47;;
51578;SDS011;47998;53.242;6.386;2023-06-26T05:44:55;12.30;;;5.82;;
51578;SDS011;47998;53.242;6.386;2023-06-26T05:47:21;14.75;;;5.80;;
51578;SDS011;47998;53.242;6.386;2023-06-26T05:49:47;19.30;;;5.95;;
51578;SDS011;47998;53.242;6.386;2023-06-26T05:52:13;18.95;;;6.38;;
51578;SDS011;47998;53.242;6.386;2023-06-26T05:54:39;22.77;;;5.75;;
51578;SDS011;47998;53.242;6.386;2023-06-26T05:57:05;12.82;;;6.00;;
51578;SDS011;47998;53.242;6.386;2023-06-26T05:59:32;16.48;;;5.40;;
51578;SDS011;47998;53.242;6.386;2023-06-26T06:01:57;12.75;;;4.63;;
51578;SDS011;47998;53.242;6.386;2023-06-26T06:04:23;18.60;;;5.22;;
51578;SDS011;47998;53.242;6.386;2023-06-26T06:06:49;21.55;;;6.05;;
51578;SDS011;47998;53.242;6.386;2023-06-26T06:09:15;21.45;;;5.00;;
51578;SDS011;47998;53.242;6.386;2023-06-26T06:11:41;12.40;;;4.03;;
51578;SDS011;47998;53.242;6.386;2023-06-26T06:14:06;15.68;;;4.13;;
51578;SDS011;47998;53.242;6.386;2023-06-26T06:16:32;12.98;;;3.58;;
51578;SDS011;47998;53.242;6.386;2023-06-26T06:18:58;10.93;;;3.65;;
51578;SDS011;47998;53.242;6.386;2023-06-26T06:21:24;10.30;;;3.60;;
51578;SDS011;47998;53.242;6.386;2023-06-26T06:23:49;13.23;;;4.65;;
51578;SDS011;47998;53.242;6.386;2023-06-26T06:26:15;12.90;;;3.35;;
51578;SDS011;47998;53.242;6.386;2023-06-26T06:28:41;11.25;;;3.53;;
51578;SDS011;47998;53.242;6.386;2023-06-26T06:31:06;12.35;;;3.42;;
51578;SDS011;47998;53.242;6.386;2023-06-26T06:33:32;9.80;;;3.42;;
51578;SDS011;47998;53.242;6.386;2023-06-26T06:35:58;14.05;;;2.70;;
51578;SDS011;47998;53.242;6.386;2023-06-26T06:38:24;16.95;;;3.60;;
51578;SDS011;47998;53.242;6.386;2023-06-26T06:40:49;14.20;;;3.55;;
51578;SDS011;47998;53.242;6.386;2023-06-26T06:43:15;13.38;;;3.47;;
51578;SDS011;47998;53.242;6.386;2023-06-26T06:45:41;9.95;;;2.13;;
51578;SDS011;47998;53.242;6.386;2023-06-26T06:48:07;7.40;;;1.52;;
51578;SDS011;47998;53.242;6.386;2023-06-26T06:50:33;10.00;;;2.47;;
51578;SDS011;47998;53.242;6.386;2023-06-26T06:52:58;7.35;;;2.35;;
51578;SDS011;47998;53.242;6.386;2023-06-26T06:55:24;9.75;;;2.63;;
51578;SDS011;47998;53.242;6.386;2023-06-26T06:57:50;10.10;;;2.53;;
51578;SDS011;47998;53.242;6.386;2023-06-26T07:00:16;7.15;;;2.15;;
51578;SDS011;47998;53.242;6.386;2023-06-26T07:02:43;10.10;;;2.20;;
51578;SDS011;47998;53.242;6.386;2023-06-26T07:05:10;8.88;;;2.08;;
51578;SDS011;47998;53.242;6.386;2023-06-26T07:07:37;10.32;;;2.20;;
51578;SDS011;47998;53.242;6.386;2023-06-26T07:10:04;9.73;;;2.20;;
51578;SDS011;47998;53.242;6.386;2023-06-26T07:12:31;9.00;;;2.28;;
51578;SDS011;47998;53.242;6.386;2023-06-26T07:14:57;7.07;;;2.15;;
51578;SDS011;47998;53.242;6.386;2023-06-26T07:17:23;8.85;;;2.70;;
51578;SDS011;47998;53.242;6.386;2023-06-26T07:19:49;16.55;;;1.88;;
51578;SDS011;47998;53.242;6.386;2023-06-26T07:22:15;7.47;;;1.75;;
51578;SDS011;47998;53.242;6.386;2023-06-26T07:24:41;8.27;;;2.10;;
51578;SDS011;47998;53.242;6.386;2023-06-26T07:27:07;5.80;;;1.55;;
51578;SDS011;47998;53.242;6.386;2023-06-26T07:29:32;4.10;;;1.23;;
51578;SDS011;47998;53.242;6.386;2023-06-26T07:31:58;7.75;;;2.08;;
51578;SDS011;47998;53.242;6.386;2023-06-26T07:34:24;6.35;;;1.63;;
51578;SDS011;47998;53.242;6.386;2023-06-26T07:36:49;7.50;;;1.80;;
51578;SDS011;47998;53.242;6.386;2023-06-26T07:39:15;5.38;;;1.20;;
51578;SDS011;47998;53.242;6.386;2023-06-26T07:41:41;5.07;;;1.83;;
51578;SDS011;47998;53.242;6.386;2023-06-26T07:44:07;5.10;;;1.60;;
51578;SDS011;47998;53.242;6.386;2023-06-26T07:46:32;8.35;;;1.83;;
51578;SDS011;47998;53.242;6.386;2023-06-26T07:48:58;10.13;;;2.17;;
51578;SDS011;47998;53.242;6.386;2023-06-26T07:51:24;6.13;;;1.77;;
51578;SDS011;47998;53.242;6.386;2023-06-26T07:53:50;8.48;;;1.50;;
51578;SDS011;47998;53.242;6.386;2023-06-26T07:56:15;7.70;;;1.80;;
51578;SDS011;47998;53.242;6.386;2023-06-26T07:58:41;5.03;;;1.10;;
51578;SDS011;47998;53.242;6.386;2023-06-26T08:01:07;8.07;;;2.30;;
51578;SDS011;47998;53.242;6.386;2023-06-26T08:03:32;5.28;;;1.52;;
51578;SDS011;47998;53.242;6.386;2023-06-26T08:05:58;6.05;;;1.77;;
51578;SDS011;47998;53.242;6.386;2023-06-26T08:08:24;5.43;;;1.70;;
51578;SDS011;47998;53.242;6.386;2023-06-26T08:10:49;6.53;;;1.77;;
51578;SDS011;47998;53.242;6.386;2023-06-26T08:13:15;7.30;;;1.73;;
51578;SDS011;47998;53.242;6.386;2023-06-26T08:15:41;10.20;;;1.98;;
51578;SDS011;47998;53.242;6.386;2023-06-26T08:18:06;7.82;;;1.48;;
51578;SDS011;47998;53.242;6.386;2023-06-26T08:20:32;6.68;;;1.75;;
51578;SDS011;47998;53.242;6.386;2023-06-26T08:23:00;3.47;;;1.23;;
51578;SDS011;47998;53.242;6.386;2023-06-26T08:25:26;8.18;;;1.67;;
51578;SDS011;47998;53.242;6.386;2023-06-26T08:27:52;7.13;;;2.08;;
51578;SDS011;47998;53.242;6.386;2023-06-26T08:30:19;4.07;;;1.73;;
51578;SDS011;47998;53.242;6.386;2023-06-26T08:32:44;7.53;;;1.88;;
51578;SDS011;47998;53.242;6.386;2023-06-26T08:35:10;4.82;;;1.80;;
51578;SDS011;47998;53.242;6.386;2023-06-26T08:37:36;7.72;;;1.20;;
51578;SDS011;47998;53.242;6.386;2023-06-26T08:40:02;3.03;;;1.23;;
51578;SDS011;47998;53.242;6.386;2023-06-26T08:42:29;5.88;;;1.27;;
51578;SDS011;47998;53.242;6.386;2023-06-26T08:44:54;4.22;;;1.20;;
51578;SDS011;47998;53.242;6.386;2023-06-26T08:47:20;7.95;;;1.27;;
51578;SDS011;47998;53.242;6.386;2023-06-26T08:49:49;5.38;;;1.60;;
51578;SDS011;47998;53.242;6.386;2023-06-26T08:52:24;7.63;;;1.90;;
51578;SDS011;47998;53.242;6.386;2023-06-26T08:54:58;3.13;;;1.50;;
51578;SDS011;47998;53.242;6.386;2023-06-26T08:57:26;4.78;;;1.25;;
51578;SDS011;47998;53.242;6.386;2023-06-26T08:59:54;6.43;;;1.73;;
51578;SDS011;47998;53.242;6.386;2023-06-26T09:02:20;8.05;;;2.10;;
51578;SDS011;47998;53.242;6.386;2023-06-26T09:04:47;5.60;;;1.65;;
51578;SDS011;47998;53.242;6.386;2023-06-26T09:07:14;3.97;;;1.85;;
51578;SDS011;47998;53.242;6.386;2023-06-26T09:09:40;6.15;;;1.70;;
51578;SDS011;47998;53.242;6.386;2023-06-26T09:12:06;6.60;;;1.33;;
51578;SDS011;47998;53.242;6.386;2023-06-26T09:14:34;5.90;;;1.70;;
51578;SDS011;47998;53.242;6.386;2023-06-26T09:17:01;5.93;;;2.00;;
51578;SDS011;47998;53.242;6.386;2023-06-26T09:19:27;4.38;;;1.55;;
51578;SDS011;47998;53.242;6.386;2023-06-26T09:21:53;4.40;;;1.40;;
51578;SDS011;47998;53.242;6.386;2023-06-26T09:24:19;5.22;;;2.20;;
51578;SDS011;47998;53.242;6.386;2023-06-26T09:26:46;5.47;;;1.67;;
51578;SDS011;47998;53.242;6.386;2023-06-26T09:29:13;4.68;;;1.70;;
51578;SDS011;47998;53.242;6.386;2023-06-26T09:31:39;7.97;;;1.70;;
51578;SDS011;47998;53.242;6.386;2023-06-26T09:34:05;9.30;;;2.55;;
51578;SDS011;47998;53.242;6.386;2023-06-26T09:36:32;6.13;;;2.25;;
51578;SDS011;47998;53.242;6.386;2023-06-26T09:39:07;10.10;;;2.25;;
51578;SDS011;47998;53.242;6.386;2023-06-26T09:41:36;5.18;;;2.13;;
51578;SDS011;47998;53.242;6.386;2023-06-26T09:44:05;6.40;;;2.47;;
51578;SDS011;47998;53.242;6.386;2023-06-26T09:46:32;6.47;;;2.38;;
51578;SDS011;47998;53.242;6.386;2023-06-26T09:51:31;6.37;;;2.07;;
51578;SDS011;47998;53.242;6.386;2023-06-26T09:54:00;5.50;;;2.38;;
51578;SDS011;47998;53.242;6.386;2023-06-26T09:56:27;7.55;;;2.03;;
51578;SDS011;47998;53.242;6.386;2023-06-26T09:58:56;4.35;;;2.17;;
51578;SDS011;47998;53.242;6.386;2023-06-26T10:01:23;7.63;;;2.20;;
51578;SDS011;47998;53.242;6.386;2023-06-26T10:03:50;9.27;;;2.50;;
51578;SDS011;47998;53.242;6.386;2023-06-26T10:06:18;3.67;;;1.75;;
51578;SDS011;47998;53.242;6.386;2023-06-26T10:08:46;5.40;;;2.17;;
51578;SDS011;47998;53.242;6.386;2023-06-26T10:11:14;6.95;;;2.08;;
51578;SDS011;47998;53.242;6.386;2023-06-26T10:13:44;7.88;;;3.05;;
51578;SDS011;47998;53.242;6.386;2023-06-26T10:16:12;4.75;;;2.20;;
51578;SDS011;47998;53.242;6.386;2023-06-26T10:18:40;5.80;;;2.00;;
51578;SDS011;47998;53.242;6.386;2023-06-26T10:21:07;5.20;;;1.90;;
51578;SDS011;47998;53.242;6.386;2023-06-26T10:23:35;4.32;;;2.08;;
51578;SDS011;47998;53.242;6.386;2023-06-26T10:26:04;11.52;;;3.10;;
51578;SDS011;47998;53.242;6.386;2023-06-26T10:28:31;5.00;;;2.47;;
51578;SDS011;47998;53.242;6.386;2023-06-26T10:31:00;4.05;;;1.95;;
51578;SDS011;47998;53.242;6.386;2023-06-26T10:33:28;3.20;;;2.03;;
51578;SDS011;47998;53.242;6.386;2023-06-26T10:35:54;5.82;;;2.30;;
51578;SDS011;47998;53.242;6.386;2023-06-26T10:38:57;4.00;;;1.83;;
51578;SDS011;47998;53.242;6.386;2023-06-26T10:41:26;4.22;;;1.80;;
51578;SDS011;47998;53.242;6.386;2023-06-26T10:46:24;9.17;;;2.23;;
51578;SDS011;47998;53.242;6.386;2023-06-26T10:48:57;6.22;;;2.03;;
51578;SDS011;47998;53.242;6.386;2023-06-26T10:51:26;4.05;;;1.60;;
51578;SDS011;47998;53.242;6.386;2023-06-26T10:53:56;7.07;;;1.90;;
51578;SDS011;47998;53.242;6.386;2023-06-26T10:59:27;4.38;;;1.55;;
51578;SDS011;47998;53.242;6.386;2023-06-26T11:01:58;6.55;;;2.00;;
51578;SDS011;47998;53.242;6.386;2023-06-26T11:04:38;10.50;;;1.27;;
51578;SDS011;47998;53.242;6.386;2023-06-26T11:07:23;5.32;;;1.25;;
51578;SDS011;47998;53.242;6.386;2023-06-26T11:12:42;3.88;;;1.10;;
51578;SDS011;47998;53.242;6.386;2023-06-26T11:17:37;5.80;;;1.50;;
51578;SDS011;47998;53.242;6.386;2023-06-26T11:20:06;5.18;;;1.17;;
51578;SDS011;47998;53.242;6.386;2023-06-26T11:22:36;5.93;;;1.17;;
51578;SDS011;47998;53.242;6.386;2023-06-26T11:25:04;5.60;;;1.45;;
51578;SDS011;47998;53.242;6.386;2023-06-26T11:30:09;10.57;;;2.60;;
51578;SDS011;47998;53.242;6.386;2023-06-26T11:32:37;10.57;;;1.50;;
51578;SDS011;47998;53.242;6.386;2023-06-26T11:35:03;4.88;;;1.00;;
51578;SDS011;47998;53.242;6.386;2023-06-26T11:37:30;4.75;;;1.02;;
51578;SDS011;47998;53.242;6.386;2023-06-26T11:39:59;3.38;;;0.88;;
51578;SDS011;47998;53.242;6.386;2023-06-26T11:42:25;5.80;;;1.70;;
51578;SDS011;47998;53.242;6.386;2023-06-26T11:44:51;8.50;;;2.28;;
51578;SDS011;47998;53.242;6.386;2023-06-26T11:47:18;4.38;;;1.00;;
51578;SDS011;47998;53.242;6.386;2023-06-26T11:49:45;3.15;;;1.17;;
51578;SDS011;47998;53.242;6.386;2023-06-26T11:52:12;10.23;;;1.23;;
51578;SDS011;47998;53.242;6.386;2023-06-26T11:54:39;6.15;;;1.23;;
51578;SDS011;47998;53.242;6.386;2023-06-26T11:57:05;5.20;;;1.10;;
51578;SDS011;47998;53.242;6.386;2023-06-26T11:59:33;3.85;;;1.27;;
51578;SDS011;47998;53.242;6.386;2023-06-26T12:02:00;6.07;;;1.67;;
51578;SDS011;47998;53.242;6.386;2023-06-26T12:04:30;3.10;;;0.85;;
51578;SDS011;47998;53.242;6.386;2023-06-26T12:06:56;5.43;;;1.20;;
51578;SDS011;47998;53.242;6.386;2023-06-26T12:09:23;8.95;;;2.03;;
51578;SDS011;47998;53.242;6.386;2023-06-26T12:11:52;6.28;;;1.65;;
51578;SDS011;47998;53.242;6.386;2023-06-26T12:14:19;5.18;;;1.63;;
51578;SDS011;47998;53.242;6.386;2023-06-26T12:16:47;4.80;;;1.27;;
51578;SDS011;47998;53.242;6.386;2023-06-26T12:19:13;8.50;;;1.58;;
51578;SDS011;47998;53.242;6.386;2023-06-26T12:24:18;4.57;;;1.73;;
51578;SDS011;47998;53.242;6.386;2023-06-26T12:26:47;6.22;;;1.20;;
51578;SDS011;47998;53.242;6.386;2023-06-26T12:29:17;6.22;;;1.17;;
51578;SDS011;47998;53.242;6.386;2023-06-26T12:31:45;8.00;;;1.65;;
51578;SDS011;47998;53.242;6.386;2023-06-26T12:34:14;4.95;;;1.33;;
51578;SDS011;47998;53.242;6.386;2023-06-26T12:36:49;4.88;;;1.10;;
51578;SDS011;47998;53.242;6.386;2023-06-26T12:39:16;6.05;;;1.10;;
51578;SDS011;47998;53.242;6.386;2023-06-26T12:41:52;5.68;;;1.13;;
51578;SDS011;47998;53.242;6.386;2023-06-26T12:44:29;9.52;;;1.30;;
51578;SDS011;47998;53.242;6.386;2023-06-26T12:47:01;3.22;;;1.10;;
51578;SDS011;47998;53.242;6.386;2023-06-26T12:49:31;5.13;;;1.45;;
51578;SDS011;47998;53.242;6.386;2023-06-26T12:52:02;7.20;;;1.10;;
51578;SDS011;47998;53.242;6.386;2023-06-26T12:54:29;3.53;;;1.02;;
51578;SDS011;47998;53.242;6.386;2023-06-26T12:56:55;4.72;;;1.08;;
51578;SDS011;47998;53.242;6.386;2023-06-26T12:59:21;5.55;;;1.30;;
51578;SDS011;47998;53.242;6.386;2023-06-26T13:01:47;4.47;;;1.17;;
51578;SDS011;47998;53.242;6.386;2023-06-26T13:04:13;11.88;;;1.98;;
51578;SDS011;47998;53.242;6.386;2023-06-26T13:06:39;3.90;;;1.30;;
51578;SDS011;47998;53.242;6.386;2023-06-26T13:09:05;8.05;;;1.50;;
51578;SDS011;47998;53.242;6.386;2023-06-26T13:11:32;4.43;;;1.23;;
51578;SDS011;47998;53.242;6.386;2023-06-26T13:13:58;3.50;;;1.10;;
51578;SDS011;47998;53.242;6.386;2023-06-26T13:16:24;7.88;;;1.17;;
51578;SDS011;47998;53.242;6.386;2023-06-26T13:18:50;2.67;;;0.93;;
51578;SDS011;47998;53.242;6.386;2023-06-26T13:21:16;4.28;;;0.82;;
51578;SDS011;47998;53.242;6.386;2023-06-26T13:23:43;3.40;;;0.90;;
51578;SDS011;47998;53.242;6.386;2023-06-26T13:26:09;5.03;;;0.77;;
51578;SDS011;47998;53.242;6.386;2023-06-26T13:28:35;4.68;;;1.27;;
51578;SDS011;47998;53.242;6.386;2023-06-26T13:31:02;6.78;;;1.35;;
51578;SDS011;47998;53.242;6.386;2023-06-26T13:33:28;8.88;;;1.45;;
51578;SDS011;47998;53.242;6.386;2023-06-26T13:35:54;8.25;;;1.67;;
51578;SDS011;47998;53.242;6.386;2023-06-26T13:38:20;3.75;;;1.23;;
51578;SDS011;47998;53.242;6.386;2023-06-26T13:40:53;13.07;;;2.17;;
51578;SDS011;47998;53.242;6.386;2023-06-26T13:43:20;7.25;;;1.30;;
51578;SDS011;47998;53.242;6.386;2023-06-26T13:45:47;6.38;;;1.90;;
51578;SDS011;47998;53.242;6.386;2023-06-26T13:48:13;6.85;;;1.85;;
51578;SDS011;47998;53.242;6.386;2023-06-26T13:50:39;6.55;;;1.45;;
51578;SDS011;47998;53.242;6.386;2023-06-26T13:53:05;8.68;;;2.05;;
51578;SDS011;47998;53.242;6.386;2023-06-26T13:55:32;7.57;;;1.60;;
51578;SDS011;47998;53.242;6.386;2023-06-26T13:57:59;7.85;;;1.85;;
51578;SDS011;47998;53.242;6.386;2023-06-26T14:00:24;9.32;;;1.48;;
51578;SDS011;47998;53.242;6.386;2023-06-26T14:02:51;5.22;;;1.70;;
51578;SDS011;47998;53.242;6.386;2023-06-26T14:05:17;4.60;;;1.40;;
51578;SDS011;47998;53.242;6.386;2023-06-26T14:07:43;5.93;;;1.08;;
51578;SDS011;47998;53.242;6.386;2023-06-26T14:10:10;9.60;;;1.63;;
51578;SDS011;47998;53.242;6.386;2023-06-26T14:12:35;11.00;;;2.33;;
51578;SDS011;47998;53.242;6.386;2023-06-26T14:15:01;7.78;;;2.20;;
51578;SDS011;47998;53.242;6.386;2023-06-26T14:17:28;5.40;;;1.40;;
51578;SDS011;47998;53.242;6.386;2023-06-26T14:19:54;2.65;;;0.90;;
51578;SDS011;47998;53.242;6.386;2023-06-26T14:22:20;6.28;;;0.90;;
51578;SDS011;47998;53.242;6.386;2023-06-26T14:24:46;4.90;;;1.58;;
51578;SDS011;47998;53.242;6.386;2023-06-26T14:27:13;8.40;;;1.90;;
51578;SDS011;47998;53.242;6.386;2023-06-26T14:29:38;5.65;;;1.30;;
51578;SDS011;47998;53.242;6.386;2023-06-26T14:32:05;8.40;;;1.75;;
51578;SDS011;47998;53.242;6.386;2023-06-26T14:34:31;7.50;;;1.30;;
51578;SDS011;47998;53.242;6.386;2023-06-26T14:36:57;6.65;;;1.88;;
51578;SDS011;47998;53.242;6.386;2023-06-26T14:39:23;9.07;;;2.13;;
51578;SDS011;47998;53.242;6.386;2023-06-26T14:41:49;11.25;;;2.35;;
51578;SDS011;47998;53.242;6.386;2023-06-26T14:44:14;8.80;;;1.75;;
51578;SDS011;47998;53.242;6.386;2023-06-26T14:46:40;9.70;;;2.83;;
51578;SDS011;47998;53.242;6.386;2023-06-26T14:49:07;5.95;;;1.58;;
51578;SDS011;47998;53.242;6.386;2023-06-26T14:51:33;7.72;;;1.67;;
51578;SDS011;47998;53.242;6.386;2023-06-26T14:53:59;4.80;;;1.50;;
51578;SDS011;47998;53.242;6.386;2023-06-26T14:56:25;9.57;;;2.40;;
51578;SDS011;47998;53.242;6.386;2023-06-26T14:58:51;5.93;;;1.75;;
51578;SDS011;47998;53.242;6.386;2023-06-26T15:01:18;6.32;;;1.63;;
51578;SDS011;47998;53.242;6.386;2023-06-26T15:03:47;6.53;;;1.48;;